Time;durP1;ratioP1;P1;durP2;ratioP2;P2;SDS_P1;SDS_P2;PMS_P1;PMS_P2;Temp;Humidity;BMP_temperature;BMP_pressure;BME280_temperature;BME280_humidity;BME280_pressure;Samples;Min_cycle;Max_cycle;Signal;HPM_P1;HPM_P2
2022/08/04 00:00:36;;;;;;;0.00;0.00;;;;;;;18.99;96.17;101199.72;4936979;28;20031;-73
2022/08/04 00:03:21;;;;;;;0.00;0.00;;;;;;;19.00;96.07;101202.31;4936151;28;20019;-73
2022/08/04 00:05:59;;;;;;;0.00;0.00;;;;;;;18.94;96.19;101200.22;4939164;28;20035;-73
2022/08/04 00:08:27;;;;;;;0.00;0.00;;;;;;;18.93;97.45;101197.66;4933501;28;20035;-73
2022/08/04 00:10:54;;;;;;;0.00;0.00;;;;;;;18.96;97.59;101200.06;4936114;28;20035;-73
2022/08/04 00:13:24;;;;;;;0.00;0.00;;;;;;;18.95;97.28;101196.50;4950016;28;20078;-73
2022/08/04 00:15:52;;;;;;;0.00;0.00;;;;;;;18.89;97.55;101181.66;4934012;28;20115;-73
2022/08/04 00:18:22;;;;;;;0.00;0.00;;;;;;;18.94;97.15;101194.75;4930589;28;20034;-73
2022/08/04 00:20:48;;;;;;;0.00;0.00;;;;;;;18.95;96.72;101191.06;4929164;28;20034;-73
2022/08/04 00:23:13;;;;;;;0.00;0.00;;;;;;;18.84;96.49;101188.59;4928271;28;20028;-73
2022/08/04 00:25:40;;;;;;;0.00;0.00;;;;;;;18.87;96.65;101193.72;4933916;28;20694;-73
2022/08/04 00:28:05;;;;;;;0.10;0.10;;;;;;;18.86;96.08;101194.72;4940795;28;20522;-73
2022/08/04 00:30:31;;;;;;;0.00;0.00;;;;;;;18.69;95.52;101164.78;4937948;28;20069;-73
2022/08/04 00:32:57;;;;;;;0.00;0.00;;;;;;;18.62;95.51;101168.31;4943354;28;20027;-73
2022/08/04 00:35:23;;;;;;;0.00;0.00;;;;;;;18.66;96.23;101188.75;4937514;28;20082;-73
2022/08/04 00:37:48;;;;;;;0.00;0.00;;;;;;;18.50;96.95;101165.06;4940025;28;20070;-73
2022/08/04 00:40:42;;;;;;;0.00;0.00;;;;;;;18.52;96.54;101179.34;4938070;28;20203;-73
2022/08/04 00:43:26;;;;;;;0.00;0.00;;;;;;;18.51;98.31;101181.19;4927331;29;20163;-73
2022/08/04 00:46:01;;;;;;;0.00;0.00;;;;;;;18.52;98.50;101176.63;4935464;28;20459;-73
2022/08/04 00:48:46;;;;;;;0.00;0.00;;;;;;;18.54;99.23;101166.44;4937842;28;20096;-73
2022/08/04 00:51:27;;;;;;;0.00;0.00;;;;;;;18.41;99.20;101151.41;4935373;28;20030;-73
2022/08/04 00:54:01;;;;;;;0.00;0.00;;;;;;;18.51;99.83;101178.47;4938867;28;20513;-73
2022/08/04 00:57:01;;;;;;;0.00;0.00;;;;;;;18.48;99.30;101165.22;4935793;28;20705;-73
2022/08/04 00:59:56;;;;;;;0.00;0.00;;;;;;;18.48;98.43;101159.75;4940638;28;20031;-73
2022/08/04 01:02:35;;;;;;;0.00;0.00;;;;;;;18.48;98.22;101158.94;4934848;28;20039;-73
2022/08/04 01:05:04;;;;;;;0.00;0.00;;;;;;;18.47;98.59;101162.66;4939972;28;20509;-73
2022/08/04 01:07:40;;;;;;;0.00;0.00;;;;;;;18.40;98.23;101154.31;4935846;28;20046;-73
2022/08/04 01:10:25;;;;;;;0.00;0.00;;;;;;;18.39;97.47;101156.16;4935227;28;20583;-73
2022/08/04 01:13:16;;;;;;;0.00;0.00;;;;;;;18.40;97.95;101148.88;4935682;29;20049;-73
2022/08/04 01:15:45;;;;;;;0.00;0.00;;;;;;;18.44;97.48;101151.09;4933810;28;20126;-72
2022/08/04 01:18:20;;;;;;;0.00;0.00;;;;;;;18.39;96.76;101141.75;4939819;28;20487;-72
2022/08/04 01:21:20;;;;;;;0.00;0.00;;;;;;;18.37;97.37;101138.34;4933454;28;20081;-72
2022/08/04 01:24:07;;;;;;;0.00;0.00;;;;;;;18.38;96.86;101140.88;4939382;28;20143;-72
2022/08/04 01:26:51;;;;;;;0.00;0.00;;;;;;;18.34;96.62;101152.25;4939793;28;20059;-72
2022/08/04 01:29:20;;;;;;;0.00;0.00;;;;;;;18.21;96.98;101120.91;4940893;28;20530;-73
2022/08/04 01:31:51;;;;;;;0.00;0.00;;;;;;;18.27;96.69;101133.03;4939929;28;20082;-72
2022/08/04 01:34:19;;;;;;;0.00;0.00;;;;;;;18.28;96.83;101126.56;4940676;28;20046;-72
2022/08/04 01:36:46;;;;;;;0.00;0.00;;;;;;;18.35;97.84;101126.78;4940655;28;20035;-72
2022/08/04 01:41:59;;;;;;;0.00;0.00;;;;;;;18.38;98.28;101123.72;4932288;28;20097;-72
2022/08/04 01:44:28;;;;;;;0.00;0.00;;;;;;;18.41;97.53;101134.25;4938983;28;20502;-73
2022/08/04 01:46:53;;;;;;;0.00;0.00;;;;;;;18.44;97.44;101125.75;4936797;28;20035;-72
2022/08/04 01:49:20;;;;;;;0.00;0.00;;;;;;;18.51;97.46;101128.69;4940170;28;20067;-73
2022/08/04 01:51:48;;;;;;;0.00;0.00;;;;;;;18.59;97.09;101120.53;4941997;28;20099;-73
2022/08/04 01:54:14;;;;;;;0.00;0.00;;;;;;;18.69;96.93;101131.28;4939347;28;20495;-73
2022/08/04 01:56:41;;;;;;;0.00;0.00;;;;;;;18.70;96.16;101128.41;4941053;28;21022;-72
2022/08/04 01:59:07;;;;;;;0.00;0.00;;;;;;;18.84;96.06;101123.31;4937891;28;20399;-72
2022/08/04 02:01:34;;;;;;;0.00;0.00;;;;;;;18.57;95.13;101084.50;4934223;28;20039;-73
2022/08/04 02:04:00;;;;;;;0.03;0.03;;;;;;;18.87;95.45;101126.56;4947039;28;20462;-72
2022/08/04 02:06:33;;;;;;;0.03;0.03;;;;;;;18.84;95.11;101112.44;4944064;28;20023;-73
2022/08/04 02:09:16;;;;;;;0.10;0.10;;;;;;;18.87;94.70;101112.97;4943760;28;20391;-73
2022/08/04 02:11:49;;;;;;;0.00;0.00;;;;;;;18.85;95.21;101115.00;4938079;28;20114;-73
2022/08/04 02:14:39;;;;;;;0.00;0.00;;;;;;;18.87;95.46;101114.81;4937897;28;20671;-72
2022/08/04 02:17:13;;;;;;;0.00;0.00;;;;;;;18.93;95.07;101111.44;4942237;28;20430;-73
2022/08/04 02:20:04;;;;;;;0.00;0.00;;;;;;;19.05;95.33;101106.56;4945493;28;20093;-72
2022/08/04 02:22:32;;;;;;;0.00;0.00;;;;;;;19.22;94.39;101103.81;4936843;28;20043;-73
2022/08/04 02:25:05;;;;;;;0.00;0.00;;;;;;;19.27;94.16;101107.75;4939618;28;20356;-73
2022/08/04 02:27:39;;;;;;;0.00;0.00;;;;;;;19.34;93.76;101108.75;4940328;28;20435;-73
2022/08/04 02:30:05;;;;;;;0.00;0.00;;;;;;;19.31;93.52;101100.97;4937875;28;20296;-68
2022/08/04 02:32:38;;;;;;;0.05;0.05;;;;;;;19.35;93.45;101093.28;4938925;28;20050;-68
2022/08/04 02:35:11;;;;;;;0.00;0.00;;;;;;;19.37;93.21;101098.53;4935573;28;20066;-68
2022/08/04 02:37:37;;;;;;;0.00;0.00;;;;;;;19.22;92.94;101076.59;4939265;28;20301;-68
2022/08/04 02:40:05;;;;;;;0.00;0.00;;;;;;;19.40;92.51;101104.53;4932312;28;20042;-68
2022/08/04 02:42:31;;;;;;;0.00;0.00;;;;;;;19.42;92.41;101105.19;4931360;28;20062;-68
2022/08/04 02:44:58;;;;;;;0.00;0.00;;;;;;;19.34;92.61;101095.16;4930184;28;20028;-68
2022/08/04 02:47:25;;;;;;;0.00;0.00;;;;;;;19.34;92.37;101091.59;4934588;28;20138;-68
2022/08/04 02:49:51;;;;;;;0.00;0.00;;;;;;;19.33;92.46;101088.00;4934020;28;20030;-68
2022/08/04 02:52:20;;;;;;;0.00;0.00;;;;;;;19.26;92.20;101073.41;4942884;28;20035;-68
2022/08/04 02:54:49;;;;;;;0.00;0.00;;;;;;;19.38;91.90;101086.63;4934387;28;20533;-68
2022/08/04 02:57:16;;;;;;;0.00;0.00;;;;;;;19.35;92.09;101087.84;4951548;28;20039;-68
2022/08/04 03:00:07;;;;;;;0.00;0.00;;;;;;;19.38;91.57;101090.22;4933210;28;20055;-68
2022/08/04 03:02:46;;;;;;;0.00;0.00;;;;;;;19.42;91.59;101086.16;4934772;28;20789;-73
2022/08/04 03:05:18;;;;;;;0.00;0.00;;;;;;;19.44;91.08;101080.50;4926530;28;20427;-73
2022/08/04 03:07:57;;;;;;;0.00;0.00;;;;;;;19.29;91.29;101080.34;4936365;28;20035;-72
2022/08/04 03:10:46;;;;;;;0.00;0.00;;;;;;;19.38;90.81;101087.50;4943763;28;20027;-72
2022/08/04 03:13:18;;;;;;;0.00;0.00;;;;;;;19.34;91.51;101086.16;4934362;28;20037;-72
2022/08/04 03:16:21;;;;;;;0.00;0.00;;;;;;;19.27;91.57;101080.53;4936231;28;20042;-72
2022/08/04 03:19:03;;;;;;;0.00;0.00;;;;;;;19.23;91.99;101073.72;4934124;28;20024;-73
2022/08/04 03:21:47;;;;;;;0.00;0.00;;;;;;;19.21;91.83;101081.22;4936861;28;20027;-73
2022/08/04 03:24:42;;;;;;;0.00;0.00;;;;;;;19.21;91.99;101075.78;4935479;28;20547;-72
2022/08/04 03:27:40;;;;;;;0.00;0.00;;;;;;;19.23;91.87;101081.91;4932865;28;20159;-72
2022/08/04 03:30:12;;;;;;;0.00;0.00;;;;;;;19.20;92.20;101076.78;4938472;28;20067;-72
2022/08/04 03:32:56;;;;;;;0.00;0.00;;;;;;;19.14;91.81;101070.16;4933798;28;20538;-72
2022/08/04 03:35:46;;;;;;;0.00;0.00;;;;;;;19.11;92.40;101065.06;4934261;28;20047;-72
2022/08/04 03:38:39;;;;;;;0.00;0.00;;;;;;;19.05;92.00;101068.47;4935733;28;20447;-72
2022/08/04 03:41:29;;;;;;;0.00;0.00;;;;;;;19.06;92.00;101066.59;4932482;28;20023;-72
2022/08/04 03:44:33;;;;;;;0.00;0.00;;;;;;;18.99;92.37;101067.28;4937589;28;20027;-68
2022/08/04 03:47:19;;;;;;;0.00;0.00;;;;;;;18.94;92.43;101063.31;4938231;28;20260;-74
2022/08/04 03:50:15;;;;;;;0.00;0.00;;;;;;;18.86;92.85;101059.59;4930102;28;20031;-74
2022/08/04 03:53:07;;;;;;;0.00;0.00;;;;;;;18.85;92.92;101054.28;4936990;28;20027;-74
2022/08/04 03:56:10;;;;;;;0.00;0.00;;;;;;;18.80;92.85;101057.53;4930757;28;20040;-72
2022/08/04 03:59:27;;;;;;;0.00;0.00;;;;;;;18.82;93.01;101050.06;4935586;28;20066;-72
2022/08/04 04:02:07;;;;;;;0.00;0.00;;;;;;;18.82;92.89;101041.03;4929772;28;20046;-72
2022/08/04 04:04:57;;;;;;;0.00;0.00;;;;;;;18.94;92.59;101052.44;4939524;28;20035;-72
2022/08/04 04:07:40;;;;;;;0.00;0.00;;;;;;;19.08;91.68;101057.25;4935220;28;20130;-72
2022/08/04 04:10:28;;;;;;;0.10;0.10;;;;;;;19.14;90.95;101058.41;4933559;28;20147;-72
2022/08/04 04:13:31;;;;;;;0.00;0.00;;;;;;;19.08;91.03;101054.53;4935490;29;20290;-72
2022/08/04 04:16:14;;;;;;;0.00;0.00;;;;;;;19.07;91.04;101060.16;4934032;28;20070;-72
2022/08/04 04:19:04;;;;;;;0.00;0.00;;;;;;;18.99;92.07;101061.84;4939747;28;20066;-72
2022/08/04 04:22:02;;;;;;;0.00;0.00;;;;;;;18.59;93.07;101020.81;4935271;28;20035;-72
2022/08/04 04:24:27;;;;;;;0.00;0.00;;;;;;;18.77;93.80;101076.91;4946548;28;20028;-72
2022/08/04 04:27:01;;;;;;;0.05;0.05;;;;;;;18.73;93.78;101080.97;4937842;28;20043;-72
2022/08/04 04:29:46;;;;;;;0.03;0.03;;;;;;;18.83;93.20;101073.53;4943790;28;20066;-72
2022/08/04 04:32:39;;;;;;;0.00;0.00;;;;;;;18.98;92.58;101084.63;4933897;28;20075;-72
2022/08/04 04:35:38;;;;;;;0.00;0.00;;;;;;;19.01;92.58;101081.56;4941250;28;20483;-72
2022/08/04 04:38:03;;;;;;;0.00;0.00;;;;;;;19.03;93.17;101086.81;4930175;28;20027;-72
2022/08/04 04:40:33;;;;;;;0.00;0.00;;;;;;;19.07;92.94;101103.69;4929353;28;20360;-72
2022/08/04 04:43:30;;;;;;;0.00;0.00;;;;;;;19.03;92.90;101103.16;4929048;28;20312;-71
2022/08/04 04:46:12;;;;;;;0.00;0.00;;;;;;;18.92;94.37;101096.13;4925632;28;20062;-72
2022/08/04 04:48:46;;;;;;;0.00;0.00;;;;;;;19.11;93.01;101108.59;4948785;28;20030;-72
2022/08/04 04:51:36;;;;;;;0.00;0.00;;;;;;;19.30;91.72;101106.56;4932414;28;20039;-72
2022/08/04 04:54:07;;;;;;;0.00;0.00;;;;;;;19.53;90.88;101119.47;4938446;28;20364;-72
2022/08/04 04:56:41;;;;;;;0.00;0.00;;;;;;;19.65;90.43;101112.66;4934258;28;20110;-72
2022/08/04 04:59:12;;;;;;;;;;;;;;;19.71;90.32;101117.41;4928269;28;20030;-72
2022/08/04 05:02:02;;;;;;;0.00;0.00;;;;;;;19.60;91.26;101117.75;4928972;28;19919;-72
2022/08/04 05:04:52;;;;;;;0.00;0.00;;;;;;;19.67;90.77;101121.50;4939393;28;20911;-69
2022/08/04 05:07:24;;;;;;;0.10;0.00;;;;;;;19.76;92.03;101120.44;4929455;28;20545;-71
2022/08/04 05:10:06;;;;;;;0.03;0.03;;;;;;;19.87;91.42;101116.50;4926097;28;20024;-70
2022/08/04 05:12:51;;;;;;;0.00;0.00;;;;;;;19.98;91.36;101120.78;4939167;28;20398;-69
2022/08/04 05:15:17;;;;;;;0.00;0.00;;;;;;;20.05;92.49;101126.38;4933227;28;20186;-72
2022/08/04 05:17:49;;;;;;;0.03;0.00;;;;;;;20.13;91.85;101123.59;4934692;28;20110;-71
2022/08/04 05:20:20;;;;;;;0.00;0.00;;;;;;;20.29;91.47;101128.16;4936740;28;20042;-69
2022/08/04 05:22:51;;;;;;;0.00;0.00;;;;;;;20.38;90.98;101112.63;4933083;28;20030;-71
2022/08/04 05:25:27;;;;;;;0.00;0.00;;;;;;;20.47;93.19;101121.63;4949270;28;20071;-69
2022/08/04 05:28:02;;;;;;;0.00;0.00;;;;;;;20.56;92.38;101125.16;4939731;28;20368;-70
2022/08/04 05:30:30;;;;;;;0.00;0.00;;;;;;;20.67;92.34;101127.44;4945912;28;20062;-71
2022/08/04 05:33:02;;;;;;;0.00;0.00;;;;;;;20.69;93.97;101130.84;4945714;28;20114;-71
2022/08/04 05:35:31;;;;;;;0.00;0.00;;;;;;;20.70;94.22;101131.72;4937273;28;20046;-67
2022/08/04 05:37:56;;;;;;;0.00;0.00;;;;;;;20.74;94.33;101133.91;4942623;28;20035;-68
2022/08/04 05:40:23;;;;;;;0.00;0.00;;;;;;;20.81;93.53;101126.72;4939739;28;20062;-68
2022/08/04 05:42:48;;;;;;;0.00;0.00;;;;;;;20.81;96.28;101126.72;4937468;28;20027;-68
2022/08/04 05:45:14;;;;;;;0.00;0.00;;;;;;;20.87;96.12;101136.06;4942113;28;20057;-68
2022/08/04 05:47:39;;;;;;;0.00;0.00;;;;;;;20.91;95.92;101123.75;4941544;28;20069;-68
2022/08/04 05:50:06;;;;;;;0.00;0.00;;;;;;;20.95;95.50;101124.25;4949020;28;20035;-68
2022/08/04 05:52:31;;;;;;;0.00;0.00;;;;;;;21.04;95.44;101127.78;4942912;28;20047;-68
2022/08/04 05:55:00;;;;;;;0.00;0.00;;;;;;;21.13;94.04;101134.84;4946770;28;20458;-67
2022/08/04 05:57:26;;;;;;;0.00;0.00;;;;;;;21.23;94.79;101131.88;4940962;28;20038;-68
2022/08/04 05:59:54;;;;;;;0.00;0.00;;;;;;;21.36;95.78;101131.25;4941419;28;20122;-68
2022/08/04 06:02:20;;;;;;;0.00;0.00;;;;;;;21.37;95.76;101108.38;4941397;28;20027;-68
2022/08/04 06:04:48;;;;;;;0.00;0.00;;;;;;;21.57;93.71;101120.50;4951743;28;20455;-68
2022/08/04 06:07:13;;;;;;;0.00;0.00;;;;;;;21.68;94.37;101127.44;4945024;28;20023;-68
2022/08/04 06:09:40;;;;;;;0.00;0.00;;;;;;;21.78;94.81;101118.09;4940626;28;20046;-71
2022/08/04 06:12:08;;;;;;;0.00;0.00;;;;;;;21.81;94.45;101117.72;4944517;28;20027;-71
2022/08/04 06:14:42;;;;;;;0.00;0.00;;;;;;;21.86;92.88;101118.84;4943577;28;20038;-72
2022/08/04 06:17:08;;;;;;;0.00;0.00;;;;;;;21.91;90.68;101115.56;4946030;28;20034;-72
2022/08/04 06:19:35;;;;;;;0.00;0.00;;;;;;;21.98;90.70;101118.38;4938160;28;20920;-71
2022/08/04 06:22:02;;;;;;;0.15;0.08;;;;;;;22.07;89.43;101119.13;4945415;28;20059;-71
2022/08/04 06:24:28;;;;;;;0.00;0.00;;;;;;;22.08;89.34;101101.69;4949158;28;20458;-71
2022/08/04 06:26:54;;;;;;;0.00;0.00;;;;;;;22.16;88.55;101096.13;4939048;28;20153;-71
2022/08/04 06:29:28;;;;;;;0.00;0.00;;;;;;;22.31;88.51;101110.63;4940737;28;20069;-71
2022/08/04 06:31:57;;;;;;;0.00;0.00;;;;;;;22.37;89.08;101119.97;4940783;28;20130;-68
2022/08/04 06:34:23;;;;;;;0.03;0.03;;;;;;;22.34;91.14;101112.16;4943223;28;20039;-70
2022/08/04 06:36:48;;;;;;;0.30;0.00;;;;;;;22.30;91.81;101106.19;4940628;28;20035;-71
2022/08/04 06:39:14;;;;;;;0.10;0.10;;;;;;;22.40;91.20;101105.06;4951490;28;20046;-71
2022/08/04 06:41:40;;;;;;;0.00;0.00;;;;;;;22.53;91.35;101112.59;4944153;28;20030;-71
2022/08/04 06:44:07;;;;;;;0.00;0.00;;;;;;;22.60;89.57;101119.00;4952398;28;20097;-71
2022/08/04 06:46:34;;;;;;;0.00;0.00;;;;;;;22.66;89.29;101114.66;4942048;28;20352;-71
2022/08/04 06:48:59;;;;;;;0.00;0.00;;;;;;;22.73;87.26;101110.09;4946577;28;20037;-71
2022/08/04 06:51:27;;;;;;;0.00;0.00;;;;;;;22.90;87.74;101108.81;4942717;28;20039;-71
2022/08/04 06:53:52;;;;;;;0.00;0.00;;;;;;;23.13;88.13;101107.75;4945654;28;20070;-71
2022/08/04 06:56:18;;;;;;;0.00;0.00;;;;;;;23.41;86.74;101114.34;4953999;28;20110;-71
2022/08/04 06:58:44;;;;;;;0.00;0.00;;;;;;;23.71;85.53;101117.75;4947835;28;20070;-71
2022/08/04 07:01:11;;;;;;;0.00;0.00;;;;;;;24.01;83.39;101119.41;4948013;28;20435;-71
2022/08/04 07:03:37;;;;;;;0.00;0.00;;;;;;;24.30;83.01;101122.94;4948311;28;20024;-70
2022/08/04 07:06:02;;;;;;;0.00;0.00;;;;;;;24.50;80.95;101117.53;4944765;28;20042;-71
2022/08/04 07:08:28;;;;;;;0.00;0.00;;;;;;;24.41;80.56;101098.50;4939859;28;20593;-71
2022/08/04 07:10:53;;;;;;;0.00;0.00;;;;;;;24.65;80.98;101112.72;4951100;28;20031;-71
2022/08/04 07:13:20;;;;;;;0.10;0.10;;;;;;;24.86;79.78;101124.66;4949677;28;20031;-70
2022/08/04 07:15:46;;;;;;;0.00;0.00;;;;;;;25.02;78.17;101112.44;4952887;28;20043;-70
2022/08/04 07:18:12;;;;;;;0.00;0.00;;;;;;;25.29;76.97;101128.94;4941340;28;20347;-70
2022/08/04 07:20:45;;;;;;;0.10;0.10;;;;;;;25.50;75.59;101121.56;4954404;28;20105;-71
2022/08/04 07:23:16;;;;;;;0.00;0.00;;;;;;;25.63;70.46;101124.28;4943263;28;20031;-71
2022/08/04 07:25:41;;;;;;;0.00;0.00;;;;;;;25.76;69.42;101126.19;4938024;28;20506;-70
2022/08/04 07:28:06;;;;;;;0.00;0.00;;;;;;;25.97;69.80;101122.34;4942487;28;20490;-70
2022/08/04 07:30:33;;;;;;;0.00;0.00;;;;;;;25.87;68.21;101119.19;4940818;28;20035;-71
2022/08/04 07:32:59;;;;;;;0.00;0.00;;;;;;;25.92;67.65;101118.56;4947863;28;20087;-71
2022/08/04 07:35:26;;;;;;;0.00;0.00;;;;;;;25.93;67.69;101117.50;4947797;28;20031;-70
2022/08/04 07:37:51;;;;;;;0.00;0.00;;;;;;;26.04;67.99;101125.06;4950300;28;20031;-70
2022/08/04 07:40:16;;;;;;;0.00;0.00;;;;;;;26.15;68.47;101120.81;4947751;28;20046;-70
2022/08/04 07:42:42;;;;;;;0.00;0.00;;;;;;;26.22;68.98;101118.06;4952220;28;20035;-71
2022/08/04 07:45:09;;;;;;;0.00;0.00;;;;;;;26.25;70.11;101131.38;4950485;28;20039;-71
2022/08/04 07:47:35;;;;;;;0.00;0.00;;;;;;;26.09;68.25;101103.25;4953502;28;20069;-70
2022/08/04 07:50:00;;;;;;;0.00;0.00;;;;;;;26.19;68.53;101120.19;4952362;28;20050;-71
2022/08/04 07:52:26;;;;;;;0.00;0.00;;;;;;;26.25;67.54;101123.97;4945350;28;20453;-71
2022/08/04 07:54:52;;;;;;;0.10;0.10;;;;;;;26.16;68.09;101130.78;4942820;28;20554;-70
2022/08/04 07:57:19;;;;;;;0.00;0.00;;;;;;;26.20;67.06;101132.03;4953269;28;20051;-71
2022/08/04 07:59:45;;;;;;;0.00;0.00;;;;;;;26.20;67.64;101135.66;4947947;28;20034;-71
2022/08/04 08:02:13;;;;;;;0.00;0.00;;;;;;;26.25;67.43;101134.13;4957348;28;20062;-70
2022/08/04 08:04:39;;;;;;;0.00;0.00;;;;;;;26.29;68.38;101136.25;4945413;28;20039;-70
2022/08/04 08:07:04;;;;;;;0.10;0.00;;;;;;;26.37;68.32;101131.53;4952124;28;20533;-70
2022/08/04 08:09:32;;;;;;;0.00;0.00;;;;;;;26.62;67.57;101137.97;4960920;28;20035;-70
2022/08/04 08:11:57;;;;;;;0.00;0.00;;;;;;;26.92;67.17;101139.34;4946089;28;20043;-71
2022/08/04 08:14:23;;;;;;;0.00;0.00;;;;;;;27.17;65.33;101139.38;4942886;28;20066;-71
2022/08/04 08:16:48;;;;;;;0.00;0.00;;;;;;;27.38;64.77;101132.66;4959538;28;20034;-70
2022/08/04 08:19:14;;;;;;;0.00;0.00;;;;;;;27.38;64.99;101123.53;4949484;28;20062;-71
2022/08/04 08:21:40;;;;;;;0.00;0.00;;;;;;;27.55;64.59;101123.81;4950721;28;20039;-71
2022/08/04 08:24:05;;;;;;;0.00;0.00;;;;;;;27.57;64.57;101115.34;4960153;28;20082;-67
2022/08/04 08:26:30;;;;;;;0.00;0.00;;;;;;;27.72;63.55;101134.28;4954236;28;20195;-68
2022/08/04 08:28:56;;;;;;;0.00;0.00;;;;;;;27.81;65.03;101131.00;4946576;28;20037;-68
2022/08/04 08:31:22;;;;;;;0.00;0.00;;;;;;;27.87;65.68;101133.94;4947823;28;20378;-68
2022/08/04 08:33:48;;;;;;;0.00;0.00;;;;;;;27.88;65.35;101108.88;4951974;28;20054;-67
2022/08/04 08:36:41;;;;;;;0.00;0.00;;;;;;;28.11;64.09;101141.34;4947761;28;20121;-68
2022/08/04 08:39:14;;;;;;;0.00;0.00;;;;;;;28.19;63.44;101123.63;4952610;28;20589;-67
2022/08/04 08:42:05;;;;;;;0.00;0.00;;;;;;;28.24;65.17;101145.00;4948775;28;20062;-67
2022/08/04 08:44:57;;;;;;;0.00;0.00;;;;;;;28.27;63.07;101148.16;4945526;28;20046;-68
2022/08/04 08:47:46;;;;;;;0.00;0.00;;;;;;;28.41;64.03;101148.84;4947771;28;20118;-67
2022/08/04 08:50:48;;;;;;;0.00;0.00;;;;;;;28.60;61.30;101159.84;4940268;28;20042;-68
2022/08/04 08:53:49;;;;;;;0.00;0.00;;;;;;;28.73;57.88;101151.41;4942412;28;20123;-67
2022/08/04 08:56:27;;;;;;;0.00;0.00;;;;;;;28.66;58.96;101155.31;4944264;28;20225;-71
2022/08/04 08:59:21;;;;;;;0.00;0.00;;;;;;;28.71;59.84;101156.31;4951280;28;20114;-71
2022/08/04 09:02:02;;;;;;;0.00;0.00;;;;;;;28.93;60.64;101163.25;4939530;28;20109;-71
2022/08/04 09:05:05;;;;;;;0.00;0.00;;;;;;;28.81;60.74;101171.50;4950687;28;20032;-72
2022/08/04 09:07:57;;;;;;;0.00;0.00;;;;;;;28.71;61.16;101166.50;4941004;28;20046;-71
2022/08/04 09:10:33;;;;;;;0.00;0.00;;;;;;;28.53;61.76;101159.94;4943347;28;20030;-71
2022/08/04 09:13:02;;;;;;;0.00;0.00;;;;;;;28.62;61.18;101162.38;4945903;28;20124;-71
2022/08/04 09:15:39;;;;;;;0.00;0.00;;;;;;;28.71;61.46;101170.13;4947405;28;20031;-71
2022/08/04 09:18:24;;;;;;;0.00;0.00;;;;;;;28.77;60.22;101176.66;4947966;28;20483;-71
2022/08/04 09:20:59;;;;;;;0.00;0.00;;;;;;;28.76;60.50;101177.75;4938110;28;20039;-71
2022/08/04 09:23:56;;;;;;;0.00;0.00;;;;;;;28.68;60.38;101183.53;4952420;28;20031;-72
2022/08/04 09:26:29;;;;;;;0.00;0.00;;;;;;;28.92;59.47;101170.72;4941756;28;20031;-71
2022/08/04 09:29:04;;;;;;;0.00;0.00;;;;;;;28.98;57.74;101188.28;4954130;28;20027;-72
2022/08/04 09:31:33;;;;;;;0.00;0.00;;;;;;;29.02;58.66;101178.44;4943867;28;20221;-72
2022/08/04 09:34:09;;;;;;;0.00;0.00;;;;;;;29.38;58.00;101186.84;4945989;28;20036;-72
2022/08/04 09:36:40;;;;;;;0.00;0.00;;;;;;;29.42;57.34;101194.44;4939732;28;20042;-72
2022/08/04 09:39:05;;;;;;;0.00;0.00;;;;;;;29.48;55.82;101187.13;4933386;29;20549;-72
2022/08/04 09:41:47;;;;;;;0.00;0.00;;;;;;;29.29;54.75;101183.56;4934221;28;20297;-71
2022/08/04 09:44:18;;;;;;;0.00;0.00;;;;;;;29.57;55.18;101205.03;4946373;28;20046;-71
2022/08/04 09:47:10;;;;;;;0.00;0.00;;;;;;;29.44;55.46;101202.50;4944303;28;20078;-71
2022/08/04 09:49:41;;;;;;;0.00;0.00;;;;;;;29.44;54.72;101178.44;4944059;28;20573;-71
2022/08/04 09:52:22;;;;;;;0.00;0.00;;;;;;;29.81;52.71;101198.69;4942860;28;20047;-71
2022/08/04 09:55:32;;;;;;;0.00;0.00;;;;;;;29.52;53.21;101199.41;4943943;28;20031;-71
2022/08/04 09:58:23;;;;;;;0.00;0.00;;;;;;;29.55;54.20;101198.06;4944584;28;20067;-68
2022/08/04 10:00:52;;;;;;;0.00;0.00;;;;;;;29.55;53.92;101209.13;4941027;28;20672;-67
2022/08/04 10:03:18;;;;;;;0.00;0.00;;;;;;;29.50;54.00;101212.63;4956566;28;20075;-67
2022/08/04 10:06:17;;;;;;;0.00;0.00;;;;;;;29.31;51.88;101225.66;4941385;28;20035;-68
2022/08/04 10:09:00;;;;;;;0.00;0.00;;;;;;;28.84;52.16;101221.63;4948238;28;20390;-67
2022/08/04 10:11:37;;;;;;;0.00;0.00;;;;;;;28.58;54.47;101214.47;4938589;28;20071;-67
2022/08/04 10:14:27;;;;;;;0.00;0.00;;;;;;;28.45;54.22;101226.53;4950484;28;20038;-67
2022/08/04 10:17:02;;;;;;;0.00;0.00;;;;;;;28.28;54.55;101232.66;4940157;28;20036;-67
2022/08/04 10:19:32;;;;;;;0.00;0.00;;;;;;;28.25;53.54;101235.88;4959589;28;20042;-68
2022/08/04 10:22:16;;;;;;;0.00;0.00;;;;;;;28.05;55.23;101247.09;4938823;28;20075;-67
2022/08/04 10:25:15;;;;;;;0.00;0.00;;;;;;;27.93;55.06;101259.94;4938856;28;20027;-68
2022/08/04 10:27:51;;;;;;;0.00;0.00;;;;;;;27.61;54.57;101252.53;4937054;28;20035;-67
2022/08/04 10:30:18;;;;;;;0.00;0.00;;;;;;;27.61;54.17;101254.47;4949693;28;20054;-68
2022/08/04 10:33:24;;;;;;;0.00;0.00;;;;;;;27.10;55.98;101244.13;4951737;28;20038;-67
2022/08/04 10:35:54;;;;;;;0.00;0.00;;;;;;;27.04;56.04;101271.72;4950067;28;20496;-68
2022/08/04 10:38:36;;;;;;;0.00;0.00;;;;;;;26.85;57.20;101271.63;4937865;28;20035;-67
2022/08/04 10:41:16;;;;;;;0.00;0.00;;;;;;;26.39;59.03;101262.41;4947882;28;20031;-68
2022/08/04 10:44:00;;;;;;;0.00;0.00;;;;;;;26.32;59.76;101292.69;4939040;28;20379;-69
2022/08/04 10:46:30;;;;;;;0.00;0.00;;;;;;;26.38;60.07;101339.66;4946995;28;20041;-72
2022/08/04 10:48:58;;;;;;;0.00;0.00;;;;;;;26.39;62.18;101371.63;4952277;28;20035;-71
2022/08/04 10:51:50;;;;;;;0.00;0.00;;;;;;;25.98;65.55;101376.22;4945974;28;20045;-71
2022/08/04 10:54:26;;;;;;;0.00;0.00;;;;;;;25.18;72.06;101372.16;4948289;28;20063;-70
2022/08/04 10:56:55;;;;;;;0.00;0.00;;;;;;;24.79;72.42;101347.03;4944551;28;20023;-70
2022/08/04 10:59:25;;;;;;;0.00;0.00;;;;;;;24.50;74.55;101342.59;4943075;28;20046;-69
2022/08/04 11:01:55;;;;;;;0.00;0.00;;;;;;;24.07;82.30;101330.66;4941207;28;20114;-69
2022/08/04 11:04:25;;;;;;;0.00;0.00;;;;;;;23.86;82.35;101319.66;4957206;28;20022;-69
2022/08/04 11:06:51;;;;;;;0.00;0.00;;;;;;;23.85;82.68;101307.84;4946747;28;20384;-71
2022/08/04 11:09:17;;;;;;;0.00;0.00;;;;;;;23.68;87.27;101290.81;4947185;28;20806;-71
2022/08/04 11:11:46;;;;;;;0.00;0.00;;;;;;;23.51;89.64;101274.63;4935663;28;20032;-71
2022/08/04 11:14:17;;;;;;;0.00;0.00;;;;;;;23.52;88.60;101272.72;4941489;28;20525;-70
2022/08/04 11:16:52;;;;;;;0.00;0.00;;;;;;;23.50;89.24;101263.84;4948338;28;20126;-71
2022/08/04 11:19:41;;;;;;;0.00;0.00;;;;;;;23.44;94.20;101235.34;4941558;28;20038;-71
2022/08/04 11:22:13;;;;;;;0.00;0.00;;;;;;;23.58;92.82;101224.50;4940761;28;20038;-71
2022/08/04 11:24:57;;;;;;;0.00;0.00;;;;;;;23.69;91.17;101248.66;4940422;28;20022;-71
2022/08/04 11:27:36;;;;;;;0.00;0.00;;;;;;;23.98;88.61;101259.66;4949783;28;20142;-71
2022/08/04 11:30:07;;;;;;;0.00;0.00;;;;;;;24.21;87.89;101267.66;4947672;28;22050;-71
2022/08/04 11:33:03;;;;;;;0.00;0.00;;;;;;;24.24;88.87;101280.97;4951102;28;20041;-71
2022/08/04 11:36:05;;;;;;;0.22;0.00;;;;;;;24.24;86.15;101294.69;4955374;28;20638;-71
2022/08/04 11:38:36;;;;;;;0.00;0.00;;;;;;;24.17;85.11;101299.28;4949318;28;20501;-71
2022/08/04 11:41:18;;;;;;;0.00;0.00;;;;;;;24.08;84.08;101295.84;4937385;28;20038;-71
2022/08/04 11:43:57;;;;;;;0.00;0.00;;;;;;;24.01;84.78;101289.44;4946936;28;20043;-71
2022/08/04 11:46:26;;;;;;;0.00;0.00;;;;;;;23.93;87.93;101273.94;4957133;28;20134;-70
2022/08/04 11:49:01;;;;;;;0.00;0.00;;;;;;;23.71;86.73;101284.06;4949842;28;20066;-71
2022/08/04 11:51:27;;;;;;;0.00;0.00;;;;;;;23.73;86.36;101279.25;4952478;28;20039;-71
2022/08/04 11:53:53;;;;;;;0.00;0.00;;;;;;;23.76;86.96;101279.72;4950164;28;20039;-71
2022/08/04 11:56:18;;;;;;;0.00;0.00;;;;;;;23.93;87.08;101265.72;4946042;28;20032;-70
2022/08/04 11:58:43;;;;;;;0.00;0.00;;;;;;;23.93;87.18;101257.50;4950881;28;20685;-71
2022/08/04 12:01:27;;;;;;;0.00;0.00;;;;;;;23.98;85.53;101267.88;4951696;28;20051;-71
2022/08/04 12:04:11;;;;;;;0.00;0.00;;;;;;;24.29;82.01;101278.50;4951860;28;20035;-70